Moose 62 — CGCZ — position and weather

sailwx.info

Track history (hours):
 
Tides and Currents Weather Stations Pressure Air Temp Water Temp Dewpoint Dewpoint Depression Visibility Wind Speed Wind Dir Waves Ship Positions

Moose 62

Last reported at 2014-Oct-25 17:28 UTC. Time now 2014-Oct-25 17:36 UTC.
Position N 48°26' W 123°26'.

; draft 2.6 m.

Type: Military. MMSI: 316013412.

Date/timePositionNaut miles runAvg speedWind from/ knotsBaromVisibWave heightAir tempDewpointWater temp
2014-Oct-25 17:28N 48°26' W 123°26'0 0.0
2014-Oct-25 16:28N 48°26' W 123°26'0 0.0
2014-Oct-25 15:31N 48°26' W 123°26'0 0.0
2014-Oct-25 14:28N 48°26' W 123°26'0 0.0
2014-Oct-25 13:28N 48°26' W 123°26'0 0.0
2014-Oct-25 12:28N 48°26' W 123°26'0 0.0
2014-Oct-25 11:28N 48°26' W 123°26'0 0.0
2014-Oct-25 10:31N 48°26' W 123°26'0 0.0
2014-Oct-25 09:28N 48°26' W 123°26'0 0.0
2014-Oct-25 08:30N 48°26' W 123°26'0 0.0
2014-Oct-25 07:30N 48°26' W 123°26'0 0.0
2014-Oct-25 06:24N 48°26' W 123°26'0 0.0
2014-Oct-25 05:30N 48°26' W 123°26'0 0.0
2014-Oct-25 04:33N 48°26' W 123°26'0 0.0
2014-Oct-25 03:30N 48°26' W 123°26'0 0.0
2014-Oct-25 02:30N 48°26' W 123°26'0 0.0
2014-Oct-25 01:33N 48°26' W 123°26'0 0.0
2014-Oct-25 00:30N 48°26' W 123°26'0 0.0
2014-Oct-24 23:30N 48°26' W 123°26'0 0.0
2014-Oct-24 22:30N 48°26' W 123°26'0 0.0
2014-Oct-24 21:30N 48°26' W 123°26'0 0.5
2014-Oct-24 20:30N 48°26' W 123°27'1 1.4
2014-Oct-24 19:34N 48°25' W 123°28'3 2.8
2014-Oct-24 18:33N 48°22' W 123°25'4 4.3
2014-Oct-24 17:33N 48°18' W 123°23'2 2.3
2014-Oct-24 16:33N 48°20' W 123°21'1 0.5
2014-Oct-24 15:33N 48°20' W 123°21'0 0.2
2014-Oct-24 14:33N 48°20' W 123°21'7 6.8
2014-Oct-24 13:33N 48°24' W 123°12'1010.2
2014-Oct-24 12:33N 48°34' W 123°13'9 9.1
2014-Oct-24 11:33N 48°43' W 123°17'6 6.4
2014-Oct-24 10:33N 48°43' W 123°26'4 4.1
2014-Oct-24 09:33N 48°40' W 123°31'3 3.5
2014-Oct-24 08:33N 48°43' W 123°32'5 5.4
2014-Oct-24 07:33N 48°44' W 123°24'7 7.0
2014-Oct-24 06:32N 48°51' W 123°25'3 3.6
2014-Oct-24 05:33N 48°54' W 123°28'9 8.7
2014-Oct-24 04:33N 48°47' W 123°20'3 2.6
2014-Oct-24 03:33N 48°45' W 123°22'8 7.9
2014-Oct-24 02:33N 48°39' W 123°14'8 8.2
2014-Oct-24 01:34N 48°31' W 123°11'8 7.7
2014-Oct-24 00:33N 48°23' W 123°13'9 8.8
2014-Oct-23 23:33N 48°24' W 123°27'1 0.6
2014-Oct-23 22:31N 48°24' W 123°28'0 0.4
2014-Oct-23 21:33N 48°24' W 123°28'0 0.4
2014-Oct-23 20:33N 48°24' W 123°28'0 0.3
2014-Oct-23 19:33N 48°24' W 123°28'1 0.7
2014-Oct-23 18:31N 48°24' W 123°27'3 3.2
2014-Oct-23 17:34N 48°21' W 123°28'1010.2
2014-Oct-23 16:33N 48°20' W 123°13'8 8.0
2014-Oct-23 15:34N 48°21' W 123°25'5 2.0
2014-Oct-23 13:14N 48°21' W 123°32'0 0.0
2014-Oct-23 12:14N 48°21' W 123°32'0 0.0
2014-Oct-23 11:32N 48°21' W 123°32'0 0.0
2014-Oct-23 10:31N 48°21' W 123°32'0 0.0
2014-Oct-23 09:31N 48°21' W 123°32'0 0.0
2014-Oct-23 08:31N 48°21' W 123°32'3 3.6
2014-Oct-23 07:34N 48°23' W 123°28'1 1.4
2014-Oct-23 06:33N 48°24' W 123°27'1 1.4
2014-Oct-23 05:33N 48°23' W 123°28'4 3.9
2014-Oct-23 04:31N 48°19' W 123°30'3 3.2
2014-Oct-23 03:32N 48°18' W 123°34'1 0.7
2014-Oct-23 02:32N 48°18' W 123°35'1 0.9
2014-Oct-23 01:33N 48°18' W 123°34'3 3.4
2014-Oct-23 00:32N 48°20' W 123°29'1 1.5
2014-Oct-22 23:34N 48°19' W 123°29'1 0.7
2014-Oct-22 22:31N 48°19' W 123°29'0 0.4
2014-Oct-22 21:33N 48°19' W 123°29'2 1.8
2014-Oct-22 20:32N 48°20' W 123°32'0 0.5
2014-Oct-22 19:33N 48°20' W 123°32'0 0.3
2014-Oct-22 18:34N 48°20' W 123°33'2 2.3
2014-Oct-22 17:34N 48°21' W 123°30'3 3.0
2014-Oct-22 16:32N 48°24' W 123°28'2 2.5
2014-Oct-22 15:33N 48°26' W 123°26'0 0.3
2014-Oct-22 14:33N 48°26' W 123°26'3 2.7
2014-Oct-22 13:33N 48°23' W 123°26'10 9.7
2014-Oct-22 12:34N 48°26' W 123°12'1413.9
2014-Oct-22 11:33N 48°40' W 123°16'5 5.3
2014-Oct-22 10:32N 48°45' W 123°14'0 0.0
2014-Oct-22 08:32N 48°45' W 123°14'0 0.0
2014-Oct-22 07:34N 48°45' W 123°14'0 0.0
2014-Oct-22 06:31N 48°45' W 123°14'0 0.0
2014-Oct-22 05:33N 48°45' W 123°14'1 1.3
2014-Oct-22 04:33N 48°44' W 123°13'10 9.5
2014-Oct-22 03:33N 48°49' W 123°01'7 7.0
2014-Oct-22 02:33N 48°52' W 123°10'1111.0
2014-Oct-22 01:34N 48°60' W 123°22'1313.1
2014-Oct-22 00:33N 49°09' W 123°36'9 9.3
2014-Oct-21 23:33N 49°14' W 123°49'6 2.8
2014-Oct-21 21:28N 49°10' W 123°56'0 0.0
2014-Oct-21 20:29N 49°10' W 123°56'0 0.0
2014-Oct-21 19:17N 49°10' W 123°56'0 0.2
2014-Oct-21 18:33N 49°10' W 123°56'6 5.6
2014-Oct-21 17:33N 49°12' W 123°48'1 0.9
2014-Oct-21 16:33N 49°11' W 123°47'2 2.1
2014-Oct-21 15:33N 49°11' W 123°44'1 1.4
2014-Oct-21 14:33N 49°11' W 123°42'7 6.9
2014-Oct-21 13:33N 49°15' W 123°51'9 8.7
2014-Oct-21 12:33N 49°22' W 123°59'1111.0
2014-Oct-21 11:33N 49°19' W 123°43'9 8.6
2014-Oct-21 10:33N 49°13' W 123°34'8 8.3
2014-Oct-21 09:33N 49°07' W 123°24'1110.9
2014-Oct-21 08:33N 48°59' W 123°13'10 9.2
2014-Oct-21 07:30N 48°53' W 123°02'7 7.1
2014-Oct-21 06:33N 48°46' W 123°02'9 9.2
2014-Oct-21 05:33N 48°42' W 123°14'10 9.9
2014-Oct-21 04:33N 48°32' W 123°12'9 9.1
2014-Oct-21 03:33N 48°23' W 123°14'8 7.7
2014-Oct-21 02:32N 48°19' W 123°24'1 0.5
2014-Oct-21 01:33N 48°18' W 123°23'1 0.7
2014-Oct-21 00:33N 48°19' W 123°23'8 7.5
2014-Oct-20 23:33N 48°26' W 123°26'0 0.3
2014-Oct-20 22:32N 48°26' W 123°26'0 0.0
2014-Oct-20 21:32N 48°26' W 123°26'0 0.0
2014-Oct-20 20:33N 48°26' W 123°26'0 0.0
2014-Oct-20 19:29N 48°26' W 123°26'0 0.0
2014-Oct-20 18:32N 48°26' W 123°26'0 0.0
2014-Oct-20 17:31N 48°26' W 123°26'0 0.0
2014-Oct-20 16:31N 48°26' W 123°26'0 0.0
2014-Oct-20 15:28N 48°26' W 123°26'0 0.0
2014-Oct-20 14:30N 48°26' W 123°26'0 0.0
2014-Oct-20 13:30N 48°26' W 123°26'0 0.0
2014-Oct-20 12:33N 48°26' W 123°26'0 0.0
2014-Oct-20 11:30N 48°26' W 123°26'0 0.0
2014-Oct-20 10:32N 48°26' W 123°26'0 0.0
2014-Oct-20 09:26N 48°26' W 123°26'0 0.0
2014-Oct-20 08:32N 48°26' W 123°26'0 0.0
2014-Oct-20 07:27N 48°26' W 123°26'0 0.0
2014-Oct-20 06:33N 48°26' W 123°26'0 0.0
2014-Oct-20 05:24N 48°26' W 123°26'0 0.0
2014-Oct-20 04:33N 48°26' W 123°26'0 0.0
2014-Oct-20 03:12N 48°26' W 123°26'0 0.0
2014-Oct-20 02:33N 48°26' W 123°26'0 0.0
2014-Oct-20 01:24N 48°26' W 123°26'0 0.0
2014-Oct-20 00:30N 48°26' W 123°26'0 0.0
2014-Oct-19 23:26N 48°26' W 123°26'0 0.0
2014-Oct-19 22:28N 48°26' W 123°26'0 0.0
2014-Oct-19 21:28N 48°26' W 123°26'0 0.0
2014-Oct-19 20:31N 48°26' W 123°26'0 0.0
2014-Oct-19 19:31N 48°26' W 123°26'0 0.0
2014-Oct-19 17:24N 48°26' W 123°26'0 0.0
2014-Oct-19 16:24N 48°26' W 123°26'0 0.0
2014-Oct-19 15:24N 48°26' W 123°26'0 0.0
2014-Oct-19 14:26N 48°26' W 123°26'0 0.0
2014-Oct-19 13:05N 48°26' W 123°26'0 0.0
2014-Oct-19 12:08N 48°26' W 123°26'0 0.0
2014-Oct-19 11:23N 48°26' W 123°26'0 0.0
2014-Oct-19 10:26N 48°26' W 123°26'0 0.0
2014-Oct-19 09:05N 48°26' W 123°26'0 0.0
2014-Oct-19 06:32N 48°26' W 123°26'0 0.0
2014-Oct-19 04:14N 48°26' W 123°26'0 0.0
2014-Oct-19 03:23N 48°26' W 123°26'0 0.0
2014-Oct-19 02:32N 48°26' W 123°26'0 0.0
2014-Oct-19 01:32N 48°26' W 123°26'0 0.0
2014-Oct-19 00:21N 48°26' W 123°26'0 0.0
2014-Oct-18 23:33N 48°26' W 123°26'0 0.0
2014-Oct-18 22:32N 48°26' W 123°26'0 0.0
2014-Oct-18 21:32N 48°26' W 123°26'0 0.0
2014-Oct-18 20:31N 48°26' W 123°26'0 0.0
2014-Oct-18 19:28N 48°26' W 123°26'0 0.0
2014-Oct-18 18:27N 48°26' W 123°26'0 0.0
2014-Oct-18 17:29N 48°26' W 123°26'0 0.0
2014-Oct-18 16:31N 48°26' W 123°26'0 0.0
2014-Oct-18 15:11N 48°26' W 123°26'0 0.0
2014-Oct-18 13:05N 48°26' W 123°26'0 0.0
2014-Oct-18 08:29N 48°26' W 123°26'0 0.0
2014-Oct-18 07:23N 48°26' W 123°26'0 0.0
2014-Oct-18 04:31N 48°26' W 123°26'0 0.0
2014-Oct-18 03:03N 48°26' W 123°26'0 0.0
2014-Oct-18 02:33N 48°26' W 123°26'0 0.0
2014-Oct-18 01:27N 48°26' W 123°26'0 0.0
2014-Oct-18 00:33N 48°26' W 123°26'0 0.0
2014-Oct-17 23:18N 48°26' W 123°26'0 0.0
2014-Oct-17 22:33N 48°26' W 123°26'0 0.0
2014-Oct-17 21:30N 48°26' W 123°26'0 0.0
2014-Oct-17 20:33N 48°26' W 123°26'0 0.0
2014-Oct-17 19:33N 48°26' W 123°26'0 0.0
2014-Oct-17 18:27N 48°26' W 123°26'0 0.0
2014-Oct-17 17:33N 48°26' W 123°26'0 0.0
2014-Oct-17 16:33N 48°26' W 123°26'0 0.0
2014-Oct-17 15:32N 48°26' W 123°26'0 0.0
2014-Oct-17 13:32N 48°26' W 123°26'0 0.0
2014-Oct-17 12:32N 48°26' W 123°26'0 0.0
2014-Oct-17 11:32N 48°26' W 123°26'0 0.0
2014-Oct-17 10:29N 48°26' W 123°26'0 0.0
2014-Oct-17 09:11N 48°26' W 123°26'0 0.0
2014-Oct-17 08:13N 48°26' W 123°26'0 0.0
2014-Oct-17 07:32N 48°26' W 123°26'0 0.0
2014-Oct-17 06:29N 48°26' W 123°26'0 0.0
2014-Oct-17 05:28N 48°26' W 123°26'0 0.0
2014-Oct-17 04:33N 48°26' W 123°26'0 0.0
2014-Oct-17 03:30N 48°26' W 123°26'0 0.0
2014-Oct-17 02:33N 48°26' W 123°26'0 0.0
2014-Oct-16 22:20N 48°26' W 123°26'0 0.0
2014-Oct-16 21:32N 48°26' W 123°26'0 0.0
2014-Oct-16 20:29N 48°26' W 123°26'0 0.0
2014-Oct-16 19:32N 48°26' W 123°26'0 0.0
2014-Oct-16 18:32N 48°26' W 123°26'0 0.0
2014-Oct-16 17:31N 48°26' W 123°26'0 0.0
2014-Oct-16 16:28N 48°26' W 123°26'0 0.0
2014-Oct-16 15:31N 48°26' W 123°26'0 0.0
2014-Oct-16 14:31N 48°26' W 123°26'0 0.0
2014-Oct-16 13:33N 48°26' W 123°26'0 0.0
2014-Oct-16 12:33N 48°26' W 123°26'0 0.0
2014-Oct-16 11:33N 48°26' W 123°26'0 0.0
2014-Oct-16 10:33N 48°26' W 123°26'0 0.0
2014-Oct-16 09:33N 48°26' W 123°26'0 0.0
2014-Oct-16 08:27N 48°26' W 123°26'0 0.0
2014-Oct-16 07:33N 48°26' W 123°26'0 0.0
2014-Oct-16 05:33N 48°26' W 123°26'0 0.0
2014-Oct-16 04:21N 48°26' W 123°26'0 0.0
2014-Oct-16 00:26N 48°26' W 123°26'0 0.0
2014-Oct-15 23:29N 48°26' W 123°26'0 0.0
2014-Oct-15 22:32N 48°26' W 123°26'0 0.0
2014-Oct-15 21:32N 48°26' W 123°26'0 0.0
2014-Oct-15 20:32N 48°26' W 123°26'0 0.0
2014-Oct-15 19:32N 48°26' W 123°26'0 0.0
2014-Oct-15 18:32N 48°26' W 123°26'  
Track history (hours):
 
Tides and Currents Weather Stations Pressure Air Temp Water Temp Dewpoint Dewpoint Depression Visibility Wind Speed Wind Dir Waves Ship Positions

Moose 62

Last reported at 2014-Oct-25 17:28 UTC. Time now 2014-Oct-25 17:36 UTC.
Position N 48°26' W 123°26'.

; draft 2.6 m.

Type: Military. MMSI: 316013412.

Date/timePositionNaut miles runAvg speedWind from/ knotsBaromVisibWave heightAir tempDewpointWater temp
2014-Oct-25 17:28N 48°26' W 123°26'0 0.0
2014-Oct-25 16:28N 48°26' W 123°26'0 0.0
2014-Oct-25 15:31N 48°26' W 123°26'0 0.0
2014-Oct-25 14:28N 48°26' W 123°26'0 0.0
2014-Oct-25 13:28N 48°26' W 123°26'0 0.0
2014-Oct-25 12:28N 48°26' W 123°26'0 0.0
2014-Oct-25 11:28N 48°26' W 123°26'0 0.0
2014-Oct-25 10:31N 48°26' W 123°26'0 0.0
2014-Oct-25 09:28N 48°26' W 123°26'0 0.0
2014-Oct-25 08:30N 48°26' W 123°26'0 0.0
2014-Oct-25 07:30N 48°26' W 123°26'0 0.0
2014-Oct-25 06:24N 48°26' W 123°26'0 0.0
2014-Oct-25 05:30N 48°26' W 123°26'0 0.0
2014-Oct-25 04:33N 48°26' W 123°26'0 0.0
2014-Oct-25 03:30N 48°26' W 123°26'0 0.0
2014-Oct-25 02:30N 48°26' W 123°26'0 0.0
2014-Oct-25 01:33N 48°26' W 123°26'0 0.0
2014-Oct-25 00:30N 48°26' W 123°26'0 0.0
2014-Oct-24 23:30N 48°26' W 123°26'0 0.0
2014-Oct-24 22:30N 48°26' W 123°26'0 0.0
2014-Oct-24 21:30N 48°26' W 123°26'0 0.5
2014-Oct-24 20:30N 48°26' W 123°27'1 1.4
2014-Oct-24 19:34N 48°25' W 123°28'3 2.8
2014-Oct-24 18:33N 48°22' W 123°25'4 4.3
2014-Oct-24 17:33N 48°18' W 123°23'2 2.3
2014-Oct-24 16:33N 48°20' W 123°21'1 0.5
2014-Oct-24 15:33N 48°20' W 123°21'0 0.2
2014-Oct-24 14:33N 48°20' W 123°21'7 6.8
2014-Oct-24 13:33N 48°24' W 123°12'1010.2
2014-Oct-24 12:33N 48°34' W 123°13'9 9.1
2014-Oct-24 11:33N 48°43' W 123°17'6 6.4
2014-Oct-24 10:33N 48°43' W 123°26'4 4.1
2014-Oct-24 09:33N 48°40' W 123°31'3 3.5
2014-Oct-24 08:33N 48°43' W 123°32'5 5.4
2014-Oct-24 07:33N 48°44' W 123°24'7 7.0
2014-Oct-24 06:32N 48°51' W 123°25'3 3.6
2014-Oct-24 05:33N 48°54' W 123°28'9 8.7
2014-Oct-24 04:33N 48°47' W 123°20'3 2.6
2014-Oct-24 03:33N 48°45' W 123°22'8 7.9
2014-Oct-24 02:33N 48°39' W 123°14'8 8.2
2014-Oct-24 01:34N 48°31' W 123°11'8 7.7
2014-Oct-24 00:33N 48°23' W 123°13'9 8.8
2014-Oct-23 23:33N 48°24' W 123°27'1 0.6
2014-Oct-23 22:31N 48°24' W 123°28'0 0.4
2014-Oct-23 21:33N 48°24' W 123°28'0 0.4
2014-Oct-23 20:33N 48°24' W 123°28'0 0.3
2014-Oct-23 19:33N 48°24' W 123°28'1 0.7
2014-Oct-23 18:31N 48°24' W 123°27'3 3.2
2014-Oct-23 17:34N 48°21' W 123°28'1010.2
2014-Oct-23 16:33N 48°20' W 123°13'8 8.0
2014-Oct-23 15:34N 48°21' W 123°25'5 2.0
2014-Oct-23 13:14N 48°21' W 123°32'0 0.0
2014-Oct-23 12:14N 48°21' W 123°32'0 0.0
2014-Oct-23 11:32N 48°21' W 123°32'0 0.0
2014-Oct-23 10:31N 48°21' W 123°32'0 0.0
2014-Oct-23 09:31N 48°21' W 123°32'0 0.0
2014-Oct-23 08:31N 48°21' W 123°32'3 3.6
2014-Oct-23 07:34N 48°23' W 123°28'1 1.4
2014-Oct-23 06:33N 48°24' W 123°27'1 1.4
2014-Oct-23 05:33N 48°23' W 123°28'4 3.9
2014-Oct-23 04:31N 48°19' W 123°30'3 3.2
2014-Oct-23 03:32N 48°18' W 123°34'1 0.7
2014-Oct-23 02:32N 48°18' W 123°35'1 0.9
2014-Oct-23 01:33N 48°18' W 123°34'3 3.4
2014-Oct-23 00:32N 48°20' W 123°29'1 1.5
2014-Oct-22 23:34N 48°19' W 123°29'1 0.7
2014-Oct-22 22:31N 48°19' W 123°29'0 0.4
2014-Oct-22 21:33N 48°19' W 123°29'2 1.8
2014-Oct-22 20:32N 48°20' W 123°32'0 0.5
2014-Oct-22 19:33N 48°20' W 123°32'0 0.3
2014-Oct-22 18:34N 48°20' W 123°33'2 2.3
2014-Oct-22 17:34N 48°21' W 123°30'3 3.0
2014-Oct-22 16:32N 48°24' W 123°28'2 2.5
2014-Oct-22 15:33N 48°26' W 123°26'0 0.3
2014-Oct-22 14:33N 48°26' W 123°26'3 2.7
2014-Oct-22 13:33N 48°23' W 123°26'10 9.7
2014-Oct-22 12:34N 48°26' W 123°12'1413.9
2014-Oct-22 11:33N 48°40' W 123°16'5 5.3
2014-Oct-22 10:32N 48°45' W 123°14'0 0.0
2014-Oct-22 08:32N 48°45' W 123°14'0 0.0
2014-Oct-22 07:34N 48°45' W 123°14'0 0.0
2014-Oct-22 06:31N 48°45' W 123°14'0 0.0
2014-Oct-22 05:33N 48°45' W 123°14'1 1.3
2014-Oct-22 04:33N 48°44' W 123°13'10 9.5
2014-Oct-22 03:33N 48°49' W 123°01'7 7.0
2014-Oct-22 02:33N 48°52' W 123°10'1111.0
2014-Oct-22 01:34N 48°60' W 123°22'1313.1
2014-Oct-22 00:33N 49°09' W 123°36'9 9.3
2014-Oct-21 23:33N 49°14' W 123°49'6 2.8
2014-Oct-21 21:28N 49°10' W 123°56'0 0.0
2014-Oct-21 20:29N 49°10' W 123°56'0 0.0
2014-Oct-21 19:17N 49°10' W 123°56'0 0.2
2014-Oct-21 18:33N 49°10' W 123°56'6 5.6
2014-Oct-21 17:33N 49°12' W 123°48'1 0.9
2014-Oct-21 16:33N 49°11' W 123°47'2 2.1
2014-Oct-21 15:33N 49°11' W 123°44'1 1.4
2014-Oct-21 14:33N 49°11' W 123°42'7 6.9
2014-Oct-21 13:33N 49°15' W 123°51'9 8.7
2014-Oct-21 12:33N 49°22' W 123°59'1111.0
2014-Oct-21 11:33N 49°19' W 123°43'9 8.6
2014-Oct-21 10:33N 49°13' W 123°34'8 8.3
2014-Oct-21 09:33N 49°07' W 123°24'1110.9
2014-Oct-21 08:33N 48°59' W 123°13'10 9.2
2014-Oct-21 07:30N 48°53' W 123°02'7 7.1
2014-Oct-21 06:33N 48°46' W 123°02'9 9.2
2014-Oct-21 05:33N 48°42' W 123°14'10 9.9
2014-Oct-21 04:33N 48°32' W 123°12'9 9.1
2014-Oct-21 03:33N 48°23' W 123°14'8 7.7
2014-Oct-21 02:32N 48°19' W 123°24'1 0.5
2014-Oct-21 01:33N 48°18' W 123°23'1 0.7
2014-Oct-21 00:33N 48°19' W 123°23'8 7.5
2014-Oct-20 23:33N 48°26' W 123°26'0 0.3
2014-Oct-20 22:32N 48°26' W 123°26'0 0.0
2014-Oct-20 21:32N 48°26' W 123°26'0 0.0
2014-Oct-20 20:33N 48°26' W 123°26'0 0.0
2014-Oct-20 19:29N 48°26' W 123°26'0 0.0
2014-Oct-20 18:32N 48°26' W 123°26'0 0.0
2014-Oct-20 17:31N 48°26' W 123°26'0 0.0
2014-Oct-20 16:31N 48°26' W 123°26'0 0.0
2014-Oct-20 15:28N 48°26' W 123°26'0 0.0
2014-Oct-20 14:30N 48°26' W 123°26'0 0.0
2014-Oct-20 13:30N 48°26' W 123°26'0 0.0
2014-Oct-20 12:33N 48°26' W 123°26'0 0.0
2014-Oct-20 11:30N 48°26' W 123°26'0 0.0
2014-Oct-20 10:32N 48°26' W 123°26'0 0.0
2014-Oct-20 09:26N 48°26' W 123°26'0 0.0
2014-Oct-20 08:32N 48°26' W 123°26'0 0.0
2014-Oct-20 07:27N 48°26' W 123°26'0 0.0
2014-Oct-20 06:33N 48°26' W 123°26'0 0.0
2014-Oct-20 05:24N 48°26' W 123°26'0 0.0
2014-Oct-20 04:33N 48°26' W 123°26'0 0.0
2014-Oct-20 03:12N 48°26' W 123°26'0 0.0
2014-Oct-20 02:33N 48°26' W 123°26'0 0.0
2014-Oct-20 01:24N 48°26' W 123°26'0 0.0
2014-Oct-20 00:30N 48°26' W 123°26'0 0.0
2014-Oct-19 23:26N 48°26' W 123°26'0 0.0
2014-Oct-19 22:28N 48°26' W 123°26'0 0.0
2014-Oct-19 21:28N 48°26' W 123°26'0 0.0
2014-Oct-19 20:31N 48°26' W 123°26'0 0.0
2014-Oct-19 19:31N 48°26' W 123°26'0 0.0
2014-Oct-19 17:24N 48°26' W 123°26'0 0.0
2014-Oct-19 16:24N 48°26' W 123°26'0 0.0
2014-Oct-19 15:24N 48°26' W 123°26'0 0.0
2014-Oct-19 14:26N 48°26' W 123°26'0 0.0
2014-Oct-19 13:05N 48°26' W 123°26'0 0.0
2014-Oct-19 12:08N 48°26' W 123°26'0 0.0
2014-Oct-19 11:23N 48°26' W 123°26'0 0.0
2014-Oct-19 10:26N 48°26' W 123°26'0 0.0
2014-Oct-19 09:05N 48°26' W 123°26'0 0.0
2014-Oct-19 06:32N 48°26' W 123°26'0 0.0
2014-Oct-19 04:14N 48°26' W 123°26'0 0.0
2014-Oct-19 03:23N 48°26' W 123°26'0 0.0
2014-Oct-19 02:32N 48°26' W 123°26'0 0.0
2014-Oct-19 01:32N 48°26' W 123°26'0 0.0
2014-Oct-19 00:21N 48°26' W 123°26'0 0.0
2014-Oct-18 23:33N 48°26' W 123°26'0 0.0
2014-Oct-18 22:32N 48°26' W 123°26'0 0.0
2014-Oct-18 21:32N 48°26' W 123°26'0 0.0
2014-Oct-18 20:31N 48°26' W 123°26'0 0.0
2014-Oct-18 19:28N 48°26' W 123°26'0 0.0
2014-Oct-18 18:27N 48°26' W 123°26'0 0.0
2014-Oct-18 17:29N 48°26' W 123°26'0 0.0
2014-Oct-18 16:31N 48°26' W 123°26'0 0.0
2014-Oct-18 15:11N 48°26' W 123°26'0 0.0
2014-Oct-18 13:05N 48°26' W 123°26'0 0.0
2014-Oct-18 08:29N 48°26' W 123°26'0 0.0
2014-Oct-18 07:23N 48°26' W 123°26'0 0.0
2014-Oct-18 04:31N 48°26' W 123°26'0 0.0
2014-Oct-18 03:03N 48°26' W 123°26'0 0.0
2014-Oct-18 02:33N 48°26' W 123°26'0 0.0
2014-Oct-18 01:27N 48°26' W 123°26'0 0.0
2014-Oct-18 00:33N 48°26' W 123°26'0 0.0
2014-Oct-17 23:18N 48°26' W 123°26'0 0.0
2014-Oct-17 22:33N 48°26' W 123°26'0 0.0
2014-Oct-17 21:30N 48°26' W 123°26'0 0.0
2014-Oct-17 20:33N 48°26' W 123°26'0 0.0
2014-Oct-17 19:33N 48°26' W 123°26'0 0.0
2014-Oct-17 18:27N 48°26' W 123°26'0 0.0
2014-Oct-17 17:33N 48°26' W 123°26'0 0.0
2014-Oct-17 16:33N 48°26' W 123°26'0 0.0
2014-Oct-17 15:32N 48°26' W 123°26'0 0.0
2014-Oct-17 13:32N 48°26' W 123°26'0 0.0
2014-Oct-17 12:32N 48°26' W 123°26'0 0.0
2014-Oct-17 11:32N 48°26' W 123°26'0 0.0
2014-Oct-17 10:29N 48°26' W 123°26'0 0.0
2014-Oct-17 09:11N 48°26' W 123°26'0 0.0
2014-Oct-17 08:13N 48°26' W 123°26'0 0.0
2014-Oct-17 07:32N 48°26' W 123°26'0 0.0
2014-Oct-17 06:29N 48°26' W 123°26'0 0.0
2014-Oct-17 05:28N 48°26' W 123°26'0 0.0
2014-Oct-17 04:33N 48°26' W 123°26'0 0.0
2014-Oct-17 03:30N 48°26' W 123°26'0 0.0
2014-Oct-17 02:33N 48°26' W 123°26'0 0.0
2014-Oct-16 22:20N 48°26' W 123°26'0 0.0
2014-Oct-16 21:32N 48°26' W 123°26'0 0.0
2014-Oct-16 20:29N 48°26' W 123°26'0 0.0
2014-Oct-16 19:32N 48°26' W 123°26'0 0.0
2014-Oct-16 18:32N 48°26' W 123°26'0 0.0
2014-Oct-16 17:31N 48°26' W 123°26'0 0.0
2014-Oct-16 16:28N 48°26' W 123°26'0 0.0
2014-Oct-16 15:31N 48°26' W 123°26'0 0.0
2014-Oct-16 14:31N 48°26' W 123°26'0 0.0
2014-Oct-16 13:33N 48°26' W 123°26'0 0.0
2014-Oct-16 12:33N 48°26' W 123°26'0 0.0
2014-Oct-16 11:33N 48°26' W 123°26'0 0.0
2014-Oct-16 10:33N 48°26' W 123°26'0 0.0
2014-Oct-16 09:33N 48°26' W 123°26'0 0.0
2014-Oct-16 08:27N 48°26' W 123°26'0 0.0
2014-Oct-16 07:33N 48°26' W 123°26'0 0.0
2014-Oct-16 05:33N 48°26' W 123°26'0 0.0
2014-Oct-16 04:21N 48°26' W 123°26'0 0.0
2014-Oct-16 00:26N 48°26' W 123°26'0 0.0
2014-Oct-15 23:29N 48°26' W 123°26'0 0.0
2014-Oct-15 22:32N 48°26' W 123°26'0 0.0
2014-Oct-15 21:32N 48°26' W 123°26'0 0.0
2014-Oct-15 20:32N 48°26' W 123°26'0 0.0
2014-Oct-15 19:32N 48°26' W 123°26'0 0.0
2014-Oct-15 18:32N 48°26' W 123°26'  

Dump ship's entire track history